Concord, NH (03301)

5:57 PM EST on December 04, 2016 (GMT -0500)
Star Granite Company | | Change Station

Elev 541 ft 43.21 °N, 71.57 °W | Updated 8 seconds ago

Clear
Clear
29.8 °F
Feels Like 30 °F
N
3.0
Wind Variable Wind from NNE

Today
High -- | Low -- °F
--% Chance of Precip.
Yesterday
High -- | Low -- °F
Precip. -- in
Pressure 30.19 in
Visibility 10.0 miles
Clouds Clear
Windchill 30 °F
Dew Point 22 °F
Humidity 74%
Rainfall 0.00 in
Snow Depth Not available.
7:01 AM 4:11 PM
Waxing Crescent, 26% visible
METAR KCON 042251Z AUTO 33006KT 10SM CLR M01/M07 A3018 RMK AO2 SLP223 T10061072
Pressure 30.19 in
Visibility 10.0 miles
Clouds Clear
Windchill 30 °F
Dew Point 22 °F
Humidity 74%
Rainfall 0.00 in
Snow Depth Not available.
7:01 AM 4:11 PM
Waxing Crescent, 26% visible
METAR KCON 042251Z AUTO 33006KT 10SM CLR M01/M07 A3018 RMK AO2 SLP223 T10061072

10-Day Weather Forecast

Almanac

Astronomy

Dec. 04, 2016 Rise Set
Actual Time
Civil Twilight
Nautical Twilight
Astronomical Twilight
Moon
Length of Visible Light
Length of Day
Tomorrow will be .
, % of the Moon is Illuminated

Today's Extremes

State Highs State Lows

Community

WunderPhotos

Upload Photos

1,955,686 photos uploaded!

WunderBlog® & News

Nearby

Air Quality

  Air Quality AQ Index Pollutant
Not available.

Snow Depth

Station Depth Elevation

Earthquake Activity

City Distance Mag. Time & Date
Minimum magnitude displayed is 2.5.

Coastal Water Temperatures

Place Temperature

Stations

Nearby Weather Stations

Station Location Temp. Windchill Dew Point Humidity Wind Precip. Elev Updated Type
                   

Watches & Warnings

There are currently no watches in effect.